createdAt,value
2018-07-14T00:00:05.574Z,32.6
2018-07-14T00:01:07.755Z,32.7
2018-07-14T00:02:09.959Z,32.7
2018-07-14T00:03:12.164Z,32.8
2018-07-14T00:04:14.071Z,32.6
2018-07-14T00:05:16.515Z,32.6
2018-07-14T00:06:18.439Z,32.7
2018-07-14T00:07:20.594Z,32.7
2018-07-14T00:08:23.080Z,32.7
2018-07-14T00:09:25.577Z,32.7
2018-07-14T00:10:27.722Z,32.6
2018-07-14T00:11:30.182Z,32.7
2018-07-14T00:12:32.628Z,32.6
2018-07-14T00:13:34.810Z,32.6
2018-07-14T00:14:37.257Z,32.7
2018-07-14T00:15:39.419Z,32.6
2018-07-14T00:16:41.865Z,32.5
2018-07-14T00:17:43.766Z,32.6
2018-07-14T00:18:46.225Z,32.7
2018-07-14T00:19:48.665Z,32.8
2018-07-14T00:20:50.853Z,32.6
2018-07-14T00:21:53.006Z,32.7
2018-07-14T00:22:55.445Z,32.6
2018-07-14T00:23:57.096Z,32.7
2018-07-14T00:24:58.975Z,32.7
2018-07-14T00:26:00.878Z,32.6
2018-07-14T00:27:03.065Z,32.7
2018-07-14T00:28:05.514Z,32.7
2018-07-14T00:29:07.687Z,32.7
2018-07-14T00:30:10.172Z,32.7
2018-07-14T00:31:12.711Z,32.6
2018-07-14T00:32:14.876Z,32.7
2018-07-14T00:33:17.326Z,32.8
2018-07-14T00:34:19.512Z,32.8
2018-07-14T00:35:21.973Z,32.8
2018-07-14T00:36:24.424Z,32.9
2018-07-14T00:37:26.602Z,32.8
2018-07-14T00:38:28.768Z,32.7
2018-07-14T00:39:30.689Z,32.7
2018-07-14T00:40:33.132Z,32.9
2018-07-14T00:41:35.570Z,32.8
2018-07-14T00:42:37.735Z,32.8
2018-07-14T00:43:40.186Z,32.9
2018-07-14T00:44:42.346Z,32.8
2018-07-14T00:45:44.808Z,32.8
2018-07-14T00:46:46.725Z,32.8
2018-07-14T00:47:48.944Z,32.6
2018-07-14T00:48:51.388Z,32.8
2018-07-14T00:49:53.575Z,32.8
2018-07-14T00:50:55.751Z,32.9
2018-07-14T00:51:57.900Z,32.8
2018-07-14T00:53:00.341Z,32.8
2018-07-14T00:54:02.559Z,32.7
2018-07-14T00:55:04.726Z,32.9
2018-07-14T00:56:07.171Z,32.8
2018-07-14T00:57:09.335Z,32.7
2018-07-14T00:58:11.246Z,32.9
2018-07-14T00:59:13.424Z,32.7
2018-07-14T01:00:15.610Z,32.9
2018-07-14T01:01:18.049Z,32.8
2018-07-14T01:02:20.490Z,32.9
2018-07-14T01:03:22.677Z,32.8
2018-07-14T01:04:25.110Z,32.8
2018-07-14T01:05:27.544Z,33
2018-07-14T01:06:29.734Z,32.8
2018-07-14T01:07:32.177Z,32.9
2018-07-14T01:08:34.339Z,32.8
2018-07-14T01:09:36.511Z,32.7
2018-07-14T01:10:38.948Z,32.9
2018-07-14T01:11:41.389Z,32.8
2018-07-14T01:12:43.844Z,32.8
2018-07-14T01:13:46.301Z,32.8
2018-07-14T01:14:48.744Z,32.8
2018-07-14T01:15:51.185Z,32.9
2018-07-14T01:16:52.831Z,32.9
2018-07-14T01:17:54.756Z,32.8
2018-07-14T01:18:57.118Z,32.7
2018-07-14T01:19:59.556Z,32.7
2018-07-14T01:21:01.766Z,33
2018-07-14T01:22:03.699Z,32.8
2018-07-14T01:23:06.157Z,33
2018-07-14T01:24:08.609Z,32.7
2018-07-14T01:25:10.267Z,32.8
2018-07-14T01:26:12.416Z,33
2018-07-14T01:27:14.585Z,32.9
2018-07-14T01:28:16.783Z,32.9
2018-07-14T01:29:19.236Z,32.9
2018-07-14T01:30:21.418Z,32.8
2018-07-14T01:31:23.316Z,32.9
2018-07-14T01:32:25.485Z,32.7
2018-07-14T01:33:27.677Z,32.9
2018-07-14T01:34:30.116Z,32.7
2018-07-14T01:35:32.290Z,32.9
2018-07-14T01:36:34.467Z,32.9
2018-07-14T01:37:36.927Z,32.8
2018-07-14T01:38:39.341Z,32.8
2018-07-14T01:39:41.516Z,32.9
2018-07-14T01:40:43.875Z,33
2018-07-14T01:41:46.376Z,32.9
2018-07-14T01:42:48.558Z,32.8
2018-07-14T01:43:50.999Z,32.8
2018-07-14T01:44:52.930Z,32.8
2018-07-14T01:45:55.376Z,32.8
2018-07-14T01:46:56.991Z,32.8
2018-07-14T01:47:59.439Z,32.9
2018-07-14T01:49:01.333Z,33
2018-07-14T01:50:03.512Z,32.9
2018-07-14T01:51:05.416Z,32.9
2018-07-14T01:52:07.857Z,32.9
2018-07-14T01:53:10.334Z,33
2018-07-14T01:54:12.536Z,32.8
2018-07-14T01:55:14.441Z,32.9
2018-07-14T01:56:16.338Z,32.8
2018-07-14T01:57:18.496Z,32.8
2018-07-14T01:58:20.956Z,32.8
2018-07-14T01:59:23.437Z,32.9
2018-07-14T02:00:25.335Z,32.8
2018-07-14T02:01:27.251Z,32.8
2018-07-14T02:02:29.740Z,32.8
2018-07-14T02:03:32.186Z,32.9
2018-07-14T02:04:34.633Z,32.8
2018-07-14T02:05:37.088Z,32.9
2018-07-14T02:06:39.534Z,32.8
2018-07-14T02:07:41.699Z,32.8
2018-07-14T02:08:43.608Z,32.9
2018-07-14T02:09:45.767Z,33
2018-07-14T02:10:48.217Z,32.9
2018-07-14T02:11:50.684Z,32.8
2018-07-14T02:12:52.825Z,32.8
2018-07-14T02:13:54.725Z,32.8
2018-07-14T02:14:56.921Z,33
2018-07-14T02:15:59.380Z,32.9
2018-07-14T02:17:01.299Z,32.9
2018-07-14T02:18:03.749Z,32.8
2018-07-14T02:19:06.191Z,32.7
2018-07-14T02:20:08.094Z,32.9
2018-07-14T02:21:10.269Z,32.8
2018-07-14T02:22:12.721Z,32.9
2018-07-14T02:23:14.897Z,32.8
2018-07-14T02:24:17.371Z,32.9
2018-07-14T02:25:19.545Z,32.9
2018-07-14T02:26:21.984Z,33
2018-07-14T02:27:24.827Z,32.8
2018-07-14T02:28:27.341Z,32.9
2018-07-14T02:29:29.895Z,32.8
2018-07-14T02:30:31.606Z,33.1
2018-07-14T02:31:33.758Z,32.9
2018-07-14T02:32:36.207Z,32.9
2018-07-14T02:33:38.377Z,32.8
2018-07-14T02:34:40.537Z,32.8
2018-07-14T02:35:42.427Z,32.9
2018-07-14T02:36:44.606Z,32.8
2018-07-14T02:37:46.502Z,32.8
2018-07-14T02:38:48.384Z,32.9
2018-07-14T02:39:50.560Z,32.9
2018-07-14T02:40:53.014Z,33
2018-07-14T02:41:55.456Z,32.8
2018-07-14T02:42:57.647Z,32.8
2018-07-14T02:44:00.088Z,32.7
2018-07-14T02:45:02.544Z,32.8
2018-07-14T02:46:04.716Z,32.9
2018-07-14T02:47:06.890Z,33
2018-07-14T02:48:09.336Z,32.9
2018-07-14T02:49:11.518Z,33
2018-07-14T02:50:13.962Z,32.9
2018-07-14T02:51:16.147Z,33
2018-07-14T02:52:18.329Z,32.9
2018-07-14T02:53:20.780Z,32.9
2018-07-14T02:54:22.969Z,32.9
2018-07-14T02:55:25.414Z,32.9
2018-07-14T02:56:27.854Z,32.9
2018-07-14T02:57:30.038Z,33
2018-07-14T02:58:31.970Z,32.9
2018-07-14T02:59:34.471Z,32.9
2018-07-14T03:00:36.692Z,32.9
2018-07-14T03:01:39.147Z,33
2018-07-14T03:02:41.317Z,32.9
2018-07-14T03:03:43.769Z,32.9
2018-07-14T03:04:45.677Z,32.9
2018-07-14T03:05:47.874Z,32.9
2018-07-14T03:06:50.332Z,32.7
2018-07-14T03:07:52.514Z,32.9
2018-07-14T03:08:54.979Z,32.9
2018-07-14T03:09:57.152Z,32.8
2018-07-14T03:10:59.617Z,32.8
2018-07-14T03:12:00.683Z,32.7
2018-07-14T03:13:03.145Z,32.8
2018-07-14T03:14:05.587Z,32.7
2018-07-14T03:15:08.059Z,32.7
2018-07-14T03:16:10.508Z,32.8
2018-07-14T03:17:12.426Z,32.8
2018-07-14T03:18:14.877Z,32.8
2018-07-14T03:19:17.443Z,32.8
2018-07-14T03:20:20.083Z,32.7
2018-07-14T03:21:22.238Z,32.8
2018-07-14T03:22:24.411Z,32.8
2018-07-14T03:23:26.577Z,32.8
2018-07-14T03:24:29.015Z,32.7
2018-07-14T03:25:31.191Z,32.6
2018-07-14T03:26:33.636Z,32.8
2018-07-14T03:27:36.074Z,32.7
2018-07-14T03:28:38.249Z,32.8
2018-07-14T03:29:40.697Z,32.7
2018-07-14T03:30:43.144Z,32.7
2018-07-14T03:31:45.049Z,32.7
2018-07-14T03:32:47.498Z,32.8
2018-07-14T03:33:49.677Z,32.7
2018-07-14T03:34:51.576Z,32.5
2018-07-14T03:35:53.489Z,32.8
2018-07-14T03:36:55.656Z,32.7
2018-07-14T03:37:58.110Z,32.5
2018-07-14T03:39:00.283Z,32.7
2018-07-14T03:40:02.185Z,32.7
2018-07-14T03:41:04.634Z,32.7
2018-07-14T03:42:07.220Z,32.6
2018-07-14T03:43:09.486Z,32.6
2018-07-14T03:44:11.651Z,32.7
2018-07-14T03:45:13.524Z,32.7
2018-07-14T03:46:15.434Z,32.6
2018-07-14T03:47:17.896Z,32.6
2018-07-14T03:48:20.054Z,32.7
2018-07-14T03:49:22.498Z,32.6
2018-07-14T03:50:24.636Z,32.5
2018-07-14T03:51:27.088Z,32.6
2018-07-14T03:52:29.534Z,32.6
2018-07-14T03:53:31.719Z,32.6
2018-07-14T03:54:33.911Z,32.6
2018-07-14T03:55:36.083Z,32.7
2018-07-14T03:56:38.526Z,32.6
2018-07-14T03:57:40.713Z,32.7
2018-07-14T03:58:42.874Z,32.6
2018-07-14T03:59:44.775Z,32.5
2018-07-14T04:00:46.943Z,32.6
2018-07-14T04:01:49.407Z,32.6
2018-07-14T04:02:51.299Z,32.4
2018-07-14T04:03:53.752Z,32.7
2018-07-14T04:04:56.196Z,32.5
2018-07-14T04:05:58.652Z,32.6
2018-07-14T04:07:00.845Z,32.6
2018-07-14T04:08:03.289Z,32.5
2018-07-14T04:09:05.206Z,32.6
2018-07-14T04:10:06.836Z,32.6
2018-07-14T04:11:09.292Z,32.6
2018-07-14T04:12:11.747Z,32.6
2018-07-14T04:13:13.936Z,32.6
2018-07-14T04:14:16.399Z,32.5
2018-07-14T04:15:18.576Z,32.5
2018-07-14T04:16:20.760Z,32.5
2018-07-14T04:17:22.968Z,32.4
2018-07-14T04:18:25.115Z,32.5
2018-07-14T04:19:27.567Z,32.5
2018-07-14T04:20:29.711Z,32.6
2018-07-14T04:21:31.899Z,32.6
2018-07-14T04:22:34.345Z,32.5
2018-07-14T04:23:36.514Z,32.5
2018-07-14T04:24:38.708Z,32.4
2018-07-14T04:25:40.859Z,32.5
2018-07-14T04:26:42.775Z,32.5
2018-07-14T04:27:45.220Z,32.6
2018-07-14T04:28:47.670Z,32.5
2018-07-14T04:29:50.273Z,32.5
2018-07-14T04:30:52.724Z,32.5
2018-07-14T04:31:54.995Z,32.5
2018-07-14T04:32:57.273Z,32.4
2018-07-14T04:33:59.165Z,32.5
2018-07-14T04:35:01.336Z,32.5
2018-07-14T04:36:03.277Z,32.5
2018-07-14T04:37:05.729Z,32.4
2018-07-14T04:38:07.905Z,32.6
2018-07-14T04:39:09.819Z,32.5
2018-07-14T04:40:11.995Z,32.6
2018-07-14T04:41:14.201Z,32.4
2018-07-14T04:42:16.076Z,32.5
2018-07-14T04:43:18.275Z,32.5
2018-07-14T04:44:20.186Z,32.4
2018-07-14T04:45:22.095Z,32.5
2018-07-14T04:46:24.274Z,32.4
2018-07-14T04:47:26.447Z,32.6
2018-07-14T04:48:28.897Z,32.6
2018-07-14T04:49:31.073Z,32.4
2018-07-14T04:50:33.252Z,32.3
2018-07-14T04:51:34.867Z,32.5
2018-07-14T04:52:37.048Z,32.4
2018-07-14T04:53:38.948Z,32.4
2018-07-14T04:54:41.144Z,32.4
2018-07-14T04:55:43.300Z,32.4
2018-07-14T04:56:45.445Z,32.5
2018-07-14T04:57:47.891Z,32.4
2018-07-14T04:58:50.082Z,32.5
2018-07-14T04:59:52.525Z,32.4
2018-07-14T05:00:54.702Z,32.5
2018-07-14T05:01:57.134Z,32.3
2018-07-14T05:02:59.307Z,32.5
2018-07-14T05:04:01.757Z,32.4
2018-07-14T05:05:04.193Z,32.6
2018-07-14T05:06:06.085Z,32.5
2018-07-14T05:07:08.255Z,32.3
2018-07-14T05:08:10.166Z,32.4
2018-07-14T05:09:12.347Z,32.5
2018-07-14T05:10:14.516Z,32.5
2018-07-14T05:11:16.387Z,32.3
2018-07-14T05:12:18.845Z,32.3
2018-07-14T05:13:21.299Z,32.5
2018-07-14T05:14:23.478Z,32.4
2018-07-14T05:15:25.630Z,32.4
2018-07-14T05:16:27.811Z,32.4
2018-07-14T05:17:29.721Z,32.4
2018-07-14T05:18:31.619Z,32.4
2018-07-14T05:19:33.794Z,32.4
2018-07-14T05:20:35.695Z,32.4
2018-07-14T05:21:37.315Z,32.4
2018-07-14T05:22:39.500Z,32.4
2018-07-14T05:23:41.969Z,32.4
2018-07-14T05:24:44.419Z,32.3
2018-07-14T05:25:46.595Z,32.3
2018-07-14T05:26:48.495Z,32.3
2018-07-14T05:27:50.949Z,32.4
2018-07-14T05:28:53.125Z,32.4
2018-07-14T05:29:55.585Z,32.5
2018-07-14T05:30:58.063Z,32.5
2018-07-14T05:32:00.505Z,32.4
2018-07-14T05:33:02.667Z,32.3
2018-07-14T05:34:05.126Z,32.5
2018-07-14T05:35:07.300Z,32.5
2018-07-14T05:36:09.465Z,32.4
2018-07-14T05:37:11.377Z,32.3
2018-07-14T05:38:13.553Z,32.4
2018-07-14T05:39:15.709Z,32.4
2018-07-14T05:40:18.162Z,32.4
2018-07-14T05:41:20.621Z,32.5
2018-07-14T05:42:22.803Z,32.5
2018-07-14T05:43:25.245Z,32.5
2018-07-14T05:44:27.429Z,32.4
2018-07-14T05:45:29.627Z,32.3
2018-07-14T05:46:32.121Z,32.3
2018-07-14T05:47:34.407Z,32.3
2018-07-14T05:48:36.436Z,32.4
2018-07-14T05:49:38.687Z,32.4
2018-07-14T05:50:40.943Z,32.4
2018-07-14T05:51:43.075Z,32.4
2018-07-14T05:52:45.553Z,32.5
2018-07-14T05:53:47.778Z,32.4
2018-07-14T05:54:50.235Z,32.5
2018-07-14T05:55:52.422Z,32.3
2018-07-14T05:56:54.867Z,32.4
2018-07-14T05:57:57.318Z,32.4
2018-07-14T05:58:58.954Z,32.4
2018-07-14T06:00:01.403Z,32.4
2018-07-14T06:01:03.855Z,32.5
2018-07-14T06:02:06.317Z,32.4
2018-07-14T06:03:08.487Z,32.4
2018-07-14T06:04:10.133Z,32.4
2018-07-14T06:05:12.599Z,32.5
2018-07-14T06:06:14.755Z,32.4
2018-07-14T06:07:16.926Z,32.4
2018-07-14T06:08:19.373Z,32.4
2018-07-14T06:09:21.546Z,32.5
2018-07-14T06:10:23.995Z,32.4
2018-07-14T06:11:26.167Z,32.4
2018-07-14T06:12:28.070Z,32.4
2018-07-14T06:13:30.517Z,32.3
2018-07-14T06:14:32.696Z,32.5
2018-07-14T06:15:34.891Z,32.4
2018-07-14T06:16:37.336Z,32.3
2018-07-14T06:17:39.782Z,32.4
2018-07-14T06:18:42.229Z,32.4
2018-07-14T06:19:44.673Z,32.5
2018-07-14T06:20:47.128Z,32.3
2018-07-14T06:21:49.301Z,32.5
2018-07-14T06:22:51.498Z,32.3
2018-07-14T06:23:53.671Z,32.3
2018-07-14T06:24:55.885Z,32.4
2018-07-14T06:25:58.417Z,32.2
2018-07-14T06:27:00.605Z,32.4
2018-07-14T06:28:02.777Z,32.4
2018-07-14T06:29:04.958Z,32.4
2018-07-14T06:30:07.129Z,32.3
2018-07-14T06:31:08.763Z,32.3
2018-07-14T06:32:10.780Z,32.3
2018-07-14T06:33:12.962Z,32.3
2018-07-14T06:34:15.407Z,32.3
2018-07-14T06:35:17.573Z,32.4
2018-07-14T06:36:19.738Z,32.4
2018-07-14T06:37:21.919Z,32.4
2018-07-14T06:38:24.525Z,32.3
2018-07-14T06:39:27.555Z,32.3
2018-07-14T06:40:29.987Z,32.4
2018-07-14T06:41:31.898Z,32.3
2018-07-14T06:42:34.066Z,32.4
2018-07-14T06:43:35.985Z,32.3
2018-07-14T06:44:37.896Z,32.4
2018-07-14T06:45:40.151Z,32.4
2018-07-14T06:46:42.605Z,32.5
2018-07-14T06:47:44.792Z,32.2
2018-07-14T06:48:46.961Z,32.4
2018-07-14T06:49:49.133Z,32.3
2018-07-14T06:50:51.580Z,32.3
2018-07-14T06:51:53.821Z,32.3
2018-07-14T06:52:56.420Z,32.4
2018-07-14T06:53:58.739Z,32.3
2018-07-14T06:55:00.710Z,32.4
2018-07-14T06:56:03.196Z,32.4
2018-07-14T06:57:05.690Z,32.4
2018-07-14T06:58:08.157Z,32.4
2018-07-14T06:59:10.095Z,32.4
2018-07-14T07:00:12.557Z,32.3
2018-07-14T07:01:14.764Z,32.5
2018-07-14T07:02:17.237Z,32.3
2018-07-14T07:03:19.465Z,32.4
2018-07-14T07:04:22.076Z,32.2
2018-07-14T07:05:24.270Z,32.4
2018-07-14T07:06:26.171Z,32.3
2018-07-14T07:07:28.071Z,32.4
2018-07-14T07:08:30.236Z,32.2
2018-07-14T07:09:32.415Z,32.3
2018-07-14T07:10:34.566Z,32.5
2018-07-14T07:11:36.486Z,32.3
2018-07-14T07:12:38.673Z,32.4
2018-07-14T07:13:41.189Z,32.4
2018-07-14T07:14:43.510Z,32.4
2018-07-14T07:15:45.961Z,32.4
2018-07-14T07:16:47.831Z,32.4
2018-07-14T07:17:49.991Z,32.3
2018-07-14T07:18:52.443Z,32.3
2018-07-14T07:19:54.902Z,32.4
2018-07-14T07:20:57.039Z,32.4
2018-07-14T07:21:59.188Z,32.3
2018-07-14T07:23:01.639Z,32.4
2018-07-14T07:24:04.083Z,32.3
2018-07-14T07:25:06.280Z,32.5
2018-07-14T07:26:08.727Z,32.4
2018-07-14T07:27:10.900Z,32.3
2018-07-14T07:28:13.340Z,32.5
2018-07-14T07:29:15.249Z,32.3
2018-07-14T07:30:17.151Z,32.4
2018-07-14T07:31:19.359Z,32.4
2018-07-14T07:32:21.525Z,32.3
2018-07-14T07:33:23.973Z,32.3
2018-07-14T07:34:26.413Z,32.4
2018-07-14T07:35:28.663Z,32.4
2018-07-14T07:36:30.846Z,32.2
2018-07-14T07:37:33.303Z,32.2
2018-07-14T07:38:35.463Z,32.5
2018-07-14T07:39:37.911Z,32.5
2018-07-14T07:40:40.101Z,32.3
2018-07-14T07:41:42.247Z,32.5
2018-07-14T07:42:43.864Z,32.3
2018-07-14T07:43:46.300Z,32.4
2018-07-14T07:44:48.747Z,32.5
2018-07-14T07:45:51.293Z,32.4
2018-07-14T07:46:53.909Z,32.4
2018-07-14T07:47:56.627Z,32.5
2018-07-14T07:48:59.262Z,32.4
2018-07-14T07:50:02.012Z,32.3
2018-07-14T07:51:04.351Z,32.3
2018-07-14T07:52:06.464Z,32.5
2018-07-14T07:53:09.092Z,32.5
2018-07-14T07:54:10.989Z,32.4
2018-07-14T07:55:13.436Z,32.4
2018-07-14T07:56:15.888Z,32.4
2018-07-14T07:57:18.108Z,32.4
2018-07-14T07:58:20.565Z,32.5
2018-07-14T07:59:23.020Z,32.5
2018-07-14T08:00:24.355Z,32.3
2018-07-14T08:01:26.248Z,32.4
2018-07-14T08:02:28.498Z,32.4
2018-07-14T08:03:31.169Z,32.4
2018-07-14T08:04:33.396Z,32.5
2018-07-14T08:05:35.325Z,32.3
2018-07-14T08:06:37.768Z,32.5
2018-07-14T08:07:40.254Z,32.5
2018-07-14T08:08:42.881Z,32.4
2018-07-14T08:09:46.185Z,32.3
2018-07-14T08:10:48.670Z,32.5
2018-07-14T08:11:51.129Z,32.5
2018-07-14T08:12:53.627Z,32.5
2018-07-14T08:13:56.115Z,32.5
2018-07-14T08:14:58.575Z,32.6
2018-07-14T08:16:01.063Z,32.5
2018-07-14T08:17:03.609Z,32.6
2018-07-14T08:18:05.794Z,32.5
2018-07-14T08:19:07.710Z,32.5
2018-07-14T08:20:09.944Z,32.5
2018-07-14T08:21:11.828Z,32.6
2018-07-14T08:22:14.009Z,32.6
2018-07-14T08:23:16.187Z,32.6
2018-07-14T08:24:18.357Z,32.5
2018-07-14T08:25:20.281Z,32.6
2018-07-14T08:26:22.463Z,32.5
2018-07-14T08:27:24.913Z,32.4
2018-07-14T08:28:27.089Z,32.5
2018-07-14T08:29:29.278Z,32.6
2018-07-14T08:30:31.452Z,32.4
2018-07-14T08:31:33.907Z,32.5
2018-07-14T08:32:36.090Z,32.5
2018-07-14T08:33:38.272Z,32.6
2018-07-14T08:34:40.723Z,32.6
2018-07-14T08:35:42.895Z,32.6
2018-07-14T08:36:45.409Z,32.4
2018-07-14T08:37:47.409Z,32.6
2018-07-14T08:38:49.889Z,32.6
2018-07-14T08:39:52.329Z,32.6
2018-07-14T08:40:54.770Z,32.7
2018-07-14T08:41:56.961Z,32.5
2018-07-14T08:42:59.127Z,32.6
2018-07-14T08:44:01.608Z,32.7
2018-07-14T08:45:04.057Z,32.5
2018-07-14T08:46:06.235Z,32.5
2018-07-14T08:47:08.423Z,32.6
2018-07-14T08:48:10.601Z,32.5
2018-07-14T08:49:12.786Z,32.5
2018-07-14T08:50:15.238Z,32.7
2018-07-14T08:51:17.812Z,32.6
2018-07-14T08:52:20.312Z,32.6
2018-07-14T08:53:22.478Z,32.6
2018-07-14T08:54:24.938Z,32.6
2018-07-14T08:55:27.392Z,32.5
2018-07-14T08:56:29.573Z,32.6
2018-07-14T08:57:32.089Z,32.4
2018-07-14T08:58:34.269Z,32.5
2018-07-14T08:59:36.411Z,32.6
2018-07-14T09:00:38.627Z,32.6
2018-07-14T09:01:41.078Z,32.5
2018-07-14T09:02:42.679Z,32.4
2018-07-14T09:03:45.059Z,32.4
2018-07-14T09:04:47.600Z,32.6
2018-07-14T09:05:49.745Z,32.5
2018-07-14T09:06:51.362Z,32.6
2018-07-14T09:07:53.518Z,32.5
2018-07-14T09:08:55.972Z,32.5
2018-07-14T09:09:58.144Z,32.5
2018-07-14T09:11:00.294Z,32.5
2018-07-14T09:12:02.471Z,32.5
2018-07-14T09:13:04.909Z,32.5
2018-07-14T09:14:07.085Z,32.6
2018-07-14T09:15:09.542Z,32.7
2018-07-14T09:16:11.708Z,32.6
2018-07-14T09:17:14.167Z,32.5
2018-07-14T09:18:16.331Z,32.6
2018-07-14T09:19:18.227Z,32.6
2018-07-14T09:20:19.847Z,32.5
2018-07-14T09:21:22.304Z,32.6
2018-07-14T09:22:24.748Z,32.5
2018-07-14T09:23:26.929Z,32.6
2018-07-14T09:24:29.111Z,32.5
2018-07-14T09:25:31.554Z,32.5
2018-07-14T09:26:33.219Z,32.6
2018-07-14T09:27:35.667Z,32.6
2018-07-14T09:28:38.125Z,32.6
2018-07-14T09:29:40.568Z,32.5
2018-07-14T09:30:42.737Z,32.7
2018-07-14T09:31:45.203Z,32.5
2018-07-14T09:32:47.357Z,32.6
2018-07-14T09:33:49.817Z,32.6
2018-07-14T09:34:51.731Z,32.4
2018-07-14T09:35:53.892Z,32.6
2018-07-14T09:36:56.338Z,32.7
2018-07-14T09:37:58.992Z,32.5
2018-07-14T09:39:01.728Z,32.5
2018-07-14T09:40:03.911Z,32.6
2018-07-14T09:41:06.379Z,32.5
2018-07-14T09:42:08.817Z,32.6
2018-07-14T09:43:11.272Z,32.5
2018-07-14T09:44:13.725Z,32.5
2018-07-14T09:45:15.898Z,32.4
2018-07-14T09:46:18.094Z,32.6
2018-07-14T09:47:20.272Z,32.4
2018-07-14T09:48:22.167Z,32.6
2018-07-14T09:49:24.352Z,32.6
2018-07-14T09:50:26.798Z,32.5
2018-07-14T09:51:29.270Z,32.6
2018-07-14T09:52:31.722Z,32.5
2018-07-14T09:53:34.180Z,32.4
2018-07-14T09:54:36.391Z,32.5
2018-07-14T09:55:38.560Z,32.6
2018-07-14T09:56:41.009Z,32.5
2018-07-14T09:57:43.463Z,32.5
2018-07-14T09:58:45.653Z,32.5
2018-07-14T09:59:47.612Z,32.4
2018-07-14T10:00:49.509Z,32.5
2018-07-14T10:01:51.747Z,32.4
2018-07-14T10:02:53.448Z,32.4
2018-07-14T10:03:55.430Z,32.5
2018-07-14T10:04:57.106Z,32.5
2018-07-14T10:05:59.692Z,32.5
2018-07-14T10:07:02.288Z,32.5
2018-07-14T10:08:04.465Z,32.4
2018-07-14T10:09:06.693Z,32.5
2018-07-14T10:10:08.640Z,32.5
2018-07-14T10:11:11.385Z,32.4
2018-07-14T10:12:13.571Z,32.5
2018-07-14T10:13:15.914Z,32.5
2018-07-14T10:14:18.884Z,32.6
2018-07-14T10:15:21.317Z,32.4
2018-07-14T10:16:23.771Z,32.5
2018-07-14T10:17:25.741Z,32.6
2018-07-14T10:18:27.808Z,32.5
2018-07-14T10:19:30.264Z,32.4
2018-07-14T10:20:32.703Z,32.5
2018-07-14T10:21:35.152Z,32.5
2018-07-14T10:22:37.598Z,32.6
2018-07-14T10:23:39.895Z,32.6
2018-07-14T10:24:42.209Z,32.6
2018-07-14T10:25:45.135Z,32.5
2018-07-14T10:26:47.978Z,32.5
2018-07-14T10:27:50.461Z,32.6
2018-07-14T10:28:52.653Z,32.5
2018-07-14T10:29:55.262Z,32.6
2018-07-14T10:30:57.176Z,32.6
2018-07-14T10:31:59.100Z,32.7
2018-07-14T10:33:01.612Z,32.7
2018-07-14T10:34:03.685Z,32.6
2018-07-14T10:35:06.748Z,32.7
2018-07-14T10:36:09.261Z,32.7
2018-07-14T10:37:11.465Z,32.6
2018-07-14T10:38:13.681Z,32.6
2018-07-14T10:39:16.143Z,32.7
2018-07-14T10:40:18.352Z,32.7
2018-07-14T10:41:20.532Z,32.7
2018-07-14T10:42:22.531Z,32.7
2018-07-14T10:43:25.167Z,32.7
2018-07-14T10:44:27.374Z,32.7
2018-07-14T10:45:29.821Z,32.8
2018-07-14T10:46:32.280Z,32.6
2018-07-14T10:47:34.473Z,32.9
2018-07-14T10:48:36.919Z,33
2018-07-14T10:49:39.367Z,32.9
2018-07-14T10:50:41.554Z,33
2018-07-14T10:51:43.721Z,33
2018-07-14T10:52:46.174Z,33
2018-07-14T10:53:48.357Z,32.9
2018-07-14T10:54:50.812Z,33.1
2018-07-14T10:55:53.279Z,33.1
2018-07-14T10:56:55.732Z,33
2018-07-14T10:57:57.975Z,33.1
2018-07-14T10:59:00.687Z,33
2018-07-14T11:00:02.951Z,33
2018-07-14T11:01:05.467Z,32.9
2018-07-14T11:02:07.669Z,33
2018-07-14T11:03:09.590Z,32.9
2018-07-14T11:04:12.201Z,32.9
2018-07-14T11:05:14.740Z,33
2018-07-14T11:06:17.171Z,32.9
2018-07-14T11:07:19.635Z,32.9
2018-07-14T11:08:22.096Z,32.9
2018-07-14T11:09:24.537Z,33
2018-07-14T11:10:26.997Z,33
2018-07-14T11:11:28.883Z,32.9
2018-07-14T11:12:31.341Z,32.9
2018-07-14T11:13:33.508Z,33
2018-07-14T11:14:35.418Z,32.9
2018-07-14T11:15:37.607Z,33
2018-07-14T11:16:39.787Z,33
2018-07-14T11:17:42.012Z,32.8
2018-07-14T11:18:44.571Z,32.9
2018-07-14T11:19:46.464Z,32.9
2018-07-14T11:20:48.642Z,33
2018-07-14T11:21:50.519Z,32.9
2018-07-14T11:22:52.705Z,32.8
2018-07-14T11:23:55.167Z,33
2018-07-14T11:24:57.078Z,33
2018-07-14T11:25:59.526Z,32.8
2018-07-14T11:27:01.723Z,32.8
2018-07-14T11:28:04.172Z,32.9
2018-07-14T11:29:05.786Z,32.9
2018-07-14T11:30:08.308Z,33
2018-07-14T11:31:10.825Z,32.9
2018-07-14T11:32:13.266Z,32.8
2018-07-14T11:33:15.722Z,33
2018-07-14T11:34:17.867Z,33
2018-07-14T11:35:20.326Z,33
2018-07-14T11:36:22.495Z,32.8
2018-07-14T11:37:24.673Z,32.9
2018-07-14T11:38:27.116Z,32.9
2018-07-14T11:39:29.561Z,32.9
2018-07-14T11:40:32.016Z,33
2018-07-14T11:41:34.459Z,32.9
2018-07-14T11:42:36.928Z,32.9
2018-07-14T11:43:39.135Z,32.8
2018-07-14T11:44:41.054Z,32.9
2018-07-14T11:45:43.227Z,33
2018-07-14T11:46:45.158Z,33
2018-07-14T11:47:47.112Z,32.9
2018-07-14T11:48:49.343Z,32.9
2018-07-14T11:49:51.834Z,33
2018-07-14T11:50:54.339Z,32.9
2018-07-14T11:51:56.056Z,32.9
2018-07-14T11:52:58.563Z,33
2018-07-14T11:54:00.465Z,33
2018-07-14T11:55:02.974Z,32.9
2018-07-14T11:56:05.449Z,32.8
2018-07-14T11:57:07.704Z,33
2018-07-14T11:58:10.153Z,32.9
2018-07-14T11:59:12.614Z,32.9
2018-07-14T12:00:14.783Z,33
2018-07-14T12:01:16.751Z,32.9
2018-07-14T12:02:18.962Z,33
2018-07-14T12:03:21.139Z,32.8
2018-07-14T12:04:23.067Z,33.1
2018-07-14T12:05:25.513Z,32.9
2018-07-14T12:06:27.955Z,32.9
2018-07-14T12:07:30.414Z,33
2018-07-14T12:08:32.854Z,33
2018-07-14T12:09:35.053Z,32.9
2018-07-14T12:10:37.205Z,32.9
2018-07-14T12:11:39.375Z,33
2018-07-14T12:12:41.822Z,33.1
2018-07-14T12:13:43.998Z,33
2018-07-14T12:14:46.446Z,33
2018-07-14T12:15:48.881Z,33
2018-07-14T12:16:50.778Z,33
2018-07-14T12:17:52.961Z,33
2018-07-14T12:18:55.397Z,33
2018-07-14T12:19:57.575Z,33
2018-07-14T12:21:00.029Z,32.9
2018-07-14T12:22:02.207Z,32.9
2018-07-14T12:23:04.655Z,32.9
2018-07-14T12:24:06.841Z,33
2018-07-14T12:25:09.015Z,33
2018-07-14T12:26:11.457Z,33
2018-07-14T12:27:13.904Z,33
2018-07-14T12:28:16.071Z,33
2018-07-14T12:29:18.523Z,33
2018-07-14T12:30:20.945Z,33
2018-07-14T12:31:23.581Z,33
2018-07-14T12:32:26.033Z,32.9
2018-07-14T12:33:28.202Z,33
2018-07-14T12:34:30.654Z,33.1
2018-07-14T12:35:32.829Z,33.1
2018-07-14T12:36:35.359Z,33.1
2018-07-14T12:37:36.982Z,32.9
2018-07-14T12:38:39.171Z,33.1
2018-07-14T12:39:41.347Z,33
2018-07-14T12:40:43.808Z,33
2018-07-14T12:41:46.008Z,33
2018-07-14T12:42:47.921Z,33.1
2018-07-14T12:43:50.093Z,33.1
2018-07-14T12:44:52.302Z,33.1
2018-07-14T12:45:54.477Z,33.1
2018-07-14T12:46:56.379Z,33.1
2018-07-14T12:47:58.826Z,33
2018-07-14T12:49:01.268Z,33.1
2018-07-14T12:50:03.721Z,33.1
2018-07-14T12:51:05.890Z,33.2
2018-07-14T12:52:08.066Z,33.2
2018-07-14T12:53:10.247Z,33.2
2018-07-14T12:54:12.435Z,33.2
2018-07-14T12:55:14.604Z,33.2
2018-07-14T12:56:16.214Z,33.2
2018-07-14T12:57:18.120Z,33.2
2018-07-14T12:58:20.299Z,33
2018-07-14T12:59:22.191Z,33
2018-07-14T13:00:24.352Z,33.1
2018-07-14T13:01:26.316Z,33.1
2018-07-14T13:02:28.928Z,33
2018-07-14T13:03:31.443Z,33
2018-07-14T13:04:33.402Z,33
2018-07-14T13:05:35.592Z,33.1
2018-07-14T13:06:37.915Z,33
2018-07-14T13:07:41.038Z,33
2018-07-14T13:08:43.755Z,33
2018-07-14T13:09:45.977Z,33.1
2018-07-14T13:10:48.269Z,32.9
2018-07-14T13:11:50.220Z,33.1
2018-07-14T13:12:52.462Z,33.2
2018-07-14T13:13:54.706Z,33
2018-07-14T13:14:57.186Z,33.1
2018-07-14T13:15:59.640Z,33
2018-07-14T13:17:01.819Z,33
2018-07-14T13:18:03.768Z,33
2018-07-14T13:19:06.037Z,33
2018-07-14T13:20:08.489Z,33.1
2018-07-14T13:21:10.358Z,33.1
2018-07-14T13:22:12.806Z,33.1
2018-07-14T13:23:15.008Z,33.1
2018-07-14T13:24:16.919Z,32.9
2018-07-14T13:25:19.103Z,33.1
2018-07-14T13:26:21.552Z,32.9
2018-07-14T13:27:24.000Z,33.1
2018-07-14T13:28:26.184Z,33.1
2018-07-14T13:29:28.629Z,33
2018-07-14T13:30:30.807Z,33.1
2018-07-14T13:31:32.968Z,33.1
2018-07-14T13:32:35.416Z,33.2
2018-07-14T13:33:37.561Z,33
2018-07-14T13:34:40.027Z,33.2
2018-07-14T13:35:42.486Z,33.1
2018-07-14T13:36:44.937Z,33.1
2018-07-14T13:37:46.579Z,33.1
2018-07-14T13:39:53.715Z,33.1
2018-07-14T13:40:55.895Z,33.3
2018-07-14T13:41:58.080Z,33.1
2018-07-14T13:43:00.527Z,33.2
2018-07-14T13:44:02.716Z,33.1
2018-07-14T13:45:04.922Z,33.1
2018-07-14T13:46:07.383Z,33.1
2018-07-14T13:47:09.542Z,33.1
2018-07-14T13:48:11.733Z,33.1
2018-07-14T13:49:13.910Z,33.2
2018-07-14T13:50:16.358Z,33.2
2018-07-14T13:51:18.544Z,33.3
2018-07-14T13:52:20.717Z,33.1
2018-07-14T13:53:22.921Z,33.3
2018-07-14T13:54:25.395Z,33.3
2018-07-14T13:55:27.825Z,33.3